Etusivu
METAR-TAF:

METAR-TAF

Lentoasemat :

Pian Rosa, Italia

Leveyspiiri: 45-56N, Pituuspiiri: 007-42E, korkeus merenpinnasta: 3480 m

Tämänhetkinen sää

Tämä raportti tehtiin 34 minuuttia sitten, kello 17.55 UTC
Tuuli 21 kn koillisesta
Lämpötila -13°C
Kosteus 22%
Ilmanpaine 998 hPa
Näkyvyys 10 km tai enemmän
ei pilviä alle 1500 m:ssä eikä cumulonimbus-pilviä

METAR: LIMH 121755Z 05021KT CAVOK M13/M30 Q0998 RMK SKC MON LIB VAL NIL VIS MIN 9999

Aika: 19:29 (18:29 UTC)


TAF: puuttuu

Säähavainnot ja -ennusteet yli 4000 lentoasemalta (METAR- ja TAF-raportit).

Käytössä olevat sääasemat on merkitty karttaan keltaisilla ja punaisilla pisteillä.

Aseta hiiri pisteen päälle nähdäksesi sääaseman nimen.

Klikkaa sitten nähdäksesi säähavainnot ja -ennusteet.

Kartan vaihtaminen: klikkaa mustalla rastilla varustettuja vihreitä pisteitä, niin voit zoomata sisään; viivalla varustettua vihreää pistettä, niin voit zoomata ulos tai vihreitä nuolia, niin pääset viereisille kartoille.


METAR-TAF: